This is the latest recevied weather packets stored in our database for station/object KK4WXG. If no packets are shown the sender has not sent any weather packets the latest 1 day(s).
| Time | Temp. | Humidity | Pressure | Rain* | Wind** | Luminosity | Snow |
|---|---|---|---|---|---|---|---|
| 1778007325 | 27.78° C | 37% | 1008.8 hPa | 0 mm | 4.92 m/s, 209° | 761 W/m² | - |
| 1778007021 | 27.78° C | 36% | 1008.8 hPa | 0 mm | 4.92 m/s, 202° | 818 W/m² | - |
| 1778006718 | 27.78° C | 38% | 1008.9 hPa | 0 mm | 1.79 m/s, 199° | 877 W/m² | - |
| 1778006415 | 27.78° C | 35% | 1009.1 hPa | 0 mm | 7.15 m/s, 212° | 888 W/m² | - |
| 1778006112 | 27.78° C | 40% | 1009.2 hPa | 0 mm | 3.58 m/s, 216° | 858 W/m² | - |
| 1778005809 | 27.22° C | 36% | 1009.2 hPa | 0 mm | 4.02 m/s, 225° | 877 W/m² | - |
| 1778005506 | 27.22° C | 37% | 1009.4 hPa | 0 mm | 4.92 m/s, 196° | 886 W/m² | - |
| 1778005202 | 27.22° C | 38% | 1009.3 hPa | 0 mm | 4.92 m/s, 201° | 905 W/m² | - |
| 1778004899 | 27.22° C | 37% | 1009.3 hPa | 0 mm | 6.71 m/s, 199° | 900 W/m² | - |
| 1778004596 | 27.78° C | 38% | 1009.3 hPa | 0 mm | 5.36 m/s, 216° | 899 W/m² | - |
| 1778004292 | 27.22° C | 36% | 1009.8 hPa | 0 mm | 6.26 m/s, 206° | 921 W/m² | - |
| 1778003989 | 27.22° C | 37% | 1009.6 hPa | 0 mm | 2.68 m/s, 196° | 937 W/m² | - |
| 1778003685 | 27.22° C | 37% | 1009.5 hPa | 0 mm | 4.47 m/s, 234° | 928 W/m² | - |
| 1778003382 | 26.67° C | 37% | 1009.6 hPa | 0 mm | 4.02 m/s, 200° | 991 W/m² | - |
| 1778003079 | 26.67° C | 36% | 1009.8 hPa | 0 mm | 4.92 m/s, 203° | 1032 W/m² | - |
| 1778002775 | 26.67° C | 39% | 1009.8 hPa | 0 mm | 4.92 m/s, 210° | 836 W/m² | - |
| 1778002472 | 26.67° C | 36% | 1009.8 hPa | 0 mm | 6.71 m/s, 207° | 854 W/m² | - |
| 1778002169 | 26.67° C | 36% | 1009.9 hPa | 0 mm | 4.92 m/s, 200° | 1011 W/m² | - |
| 1778001867 | 26.67° C | 37% | 1010.1 hPa | 0 mm | 5.81 m/s, 201° | 991 W/m² | - |
| 1778001566 | 26.67° C | 37% | 1009.7 hPa | 0 mm | 2.68 m/s, 180° | 984 W/m² | - |
| 1778001264 | 26.11° C | 37% | 1010.1 hPa | 0 mm | 5.81 m/s, 201° | 992 W/m² | - |
| 1778000960 | 26.11° C | 39% | 1010.1 hPa | 0 mm | 4.92 m/s, 222° | 984 W/m² | - |
| 1778000657 | 26.67° C | 39% | 1010.1 hPa | 0 mm | 4.92 m/s, 207° | 991 W/m² | - |
| 1778000352 | 26.11° C | 39% | 1010.3 hPa | 0 mm | 2.24 m/s, 202° | 989 W/m² | - |
| 1778000048 | 26.67° C | 41% | 1010.2 hPa | 0 mm | 3.13 m/s, 212° | 989 W/m² | - |
* Rain latest hour (hover to see other rain measurements)
** Current wind speed in m/s (hover to see current wind gust speed)